Terminal Aerodrome Forecast
Issued by NWS Jackson, MS

Home | Current Version | Previous Version | Text Only | Print | Product List | Glossary On
Versions: 1 2 3 4 5 6 7 8 9 10 11 12 13 14 15 16 17
953
FTUS44 KJAN 221743
TAFGLH
TAF
KGLH 221743Z 2218/2318 04006KT P6SM OVC005
     FM222000 VRB04KT P6SM SCT025
     FM230300 18003KT 4SM BR SKC
     FM230600 19004KT 1SM BR SKC
     FM230900 VRB03KT 1/4SM FG BKN005=

USA.gov is the U.S. government's official web portal to all federal, state and local government web resources and services.